Home > Products > Valid Products > MTR

000
SAUS43 KEAX 010653
MTRCDJ
METAR KCDJ 010652Z AUTO 01003KT M02/M06 A3049 RMK AO1 SLP336
T10171061





000
SAUS43 KEAX 010554
MTRCDJ
METAR KCDJ 010552Z AUTO 00000KT M01/M06 A3049 RMK AO1 SLP338
T10111061 10039 21011 401061011 53006





000
SAUS43 KEAX 010453
MTRCDJ
METAR KCDJ 010452Z AUTO 00000KT M01/M06 A3049 RMK AO1 SLP336
T10061061





000
SAUS43 KEAX 010353
MTRCDJ
METAR KCDJ 010352Z AUTO 02004KT 01/M07 A3047 RMK AO1 SLP331
T00111067





000
SAUS43 KEAX 010353
MTRCDJ
METAR KCDJ 010352Z AUTO 02004KT 01/M07 A3047 RMK AO1 SLP331
T00111067





000
SAUS43 KEAX 010253
MTRCDJ
METAR KCDJ 010252Z AUTO 00000KT M01/M06 A3048 RMK AO1 SLP333
T10061056 51005





000
SAUS43 KEAX 010153
MTRCDJ
METAR KCDJ 010152Z AUTO 00000KT 01/M06 A3047 RMK AO1 SLP331
T00061056





000
SAUS43 KEAX 010054
MTRCDJ
METAR KCDJ 010052Z AUTO 00000KT 03/M06 A3047 RMK AO1 SLP330
T00281061





000
SAUS43 KEAX 312353
MTRCDJ
METAR KCDJ 312352Z AUTO 34003KT 04/M07 A3046 RMK AO1 SLP326
T00391067 10083 20039 53005





000
SAUS43 KEAX 312253
MTRCDJ
METAR KCDJ 312252Z AUTO 34006KT 06/M08 A3045 RMK AO1 SLP320
T00611078





000
SAUS43 KEAX 312253
MTRCDJ
METAR KCDJ 312252Z AUTO 34006KT 06/M08 A3045 RMK AO1 SLP320
T00611078





000
SAUS43 KEAX 312153
MTRCDJ
METAR KCDJ 312152Z AUTO 35008KT 300V010 08/M07 A3045 RMK AO1 SLP319
T00781072





000
SAUS43 KEAX 312053
MTRCDJ
METAR KCDJ 312052Z AUTO 36008G17KT 08/M08 A3044 RMK AO1 SLP314
T00831078 56011





000
SAUS43 KEAX 311953
MTRCDJ
METAR KCDJ 311952Z AUTO 35008G15KT 310V030 08/M08 A3045 RMK AO1
SLP315 T00831078





000
SAUS43 KEAX 311853
MTRCDJ
METAR KCDJ 311852Z AUTO 36013G19KT 07/M09 A3046 RMK AO1 SLP320
T00721089





000
SAUS43 KEAX 311754
MTRCDJ
METAR KCDJ 311752Z AUTO 34006G18KT 07/M08 A3048 RMK AO1 SLP326
T00671078 10067 20011 58000





000
SAUS43 KEAX 311653
MTRCDJ
METAR KCDJ 311652Z AUTO 36008G17KT 05/M07 A3050 RMK AO1 SLP333
T00501067





000
SAUS43 KEAX 311653
MTRCDJ
METAR KCDJ 311652Z AUTO 36008G17KT 05/M07 A3050 RMK AO1 SLP333
T00501067





000
SAUS43 KEAX 311553
MTRCDJ
METAR KCDJ 311552Z AUTO 35008G16KT 04/M07 A3049 RMK AO1 SLP330
T00391067





000
SAUS43 KEAX 311453
MTRCDJ
METAR KCDJ 311452Z AUTO 34010G17KT 320V020 03/M07 A3048 RMK AO1
SLP327 T00281072 51029





000
SAUS43 KEAX 311354
MTRCDJ
METAR KCDJ 311352Z AUTO 35007G18KT 320V030 02/M08 A3047 RMK AO1 PK
WND 36026/1253 SLP323 T00171078





000
SAUS43 KEAX 311254
MTRCDJ
METAR KCDJ 311252Z AUTO 01012G16KT 01/M07 A3043 RMK AO1 PK WND
36026/1231 PRESRR SLP309 T00111072





000
SAUS43 KEAX 311153
MTRCDJ
METAR KCDJ 311152Z AUTO 35008G14KT 02/M04 A3039 RMK AO1 SLP296
T00221044 10106 20022 51029





000
SAUS43 KEAX 311053
MTRCDJ
METAR KCDJ 311052Z AUTO 34005G16KT 04/M04 A3038 RMK AO1 PK WND
35027/1014 SLP289 T00391039





000
SAUS43 KEAX 311053
MTRCDJ
METAR KCDJ 311052Z AUTO 34005G16KT 04/M04 A3038 RMK AO1 PK WND
35027/1014 SLP289 T00391039





000
SAUS43 KEAX 310953
MTRCDJ
METAR KCDJ 310952Z AUTO 34013G23KT 06/M01 A3034 RMK AO1 SLP273
T00611011





000
SAUS43 KEAX 310953
MTRCDJ
METAR KCDJ 310952Z AUTO 34013G23KT 06/M01 A3034 RMK AO1 SLP273
T00611011





000
SAUS43 KEAX 310854
MTRCDJ
METAR KCDJ 310852Z AUTO 34009G18KT 08/01 A3030 RMK AO1 SLP261
T00780011 53033





000
SAUS43 KEAX 310753
MTRCDJ
METAR KCDJ 310752Z AUTO 35012G23KT 320V030 09/02 A3026 RMK AO1
SLP247 T00940022





000
SAUS43 KEAX 310654
MTRCDJ
METAR KCDJ 310652Z AUTO 35008KT 11/04 A3023 RMK AO1 SLP236 T01060044





000
SAUS43 KEAX 310553
MTRCDJ
METAR KCDJ 310552Z AUTO 35008KT 10/04 A3020 RMK AO1 SLP227 T01000039
10150 20100 401890050 53026





000
SAUS43 KEAX 310453
MTRCDJ
METAR KCDJ 310452Z AUTO 34005KT 11/03 A3017 RMK AO1 SLP218 T01110033





000
SAUS43 KEAX 310453
MTRCDJ
METAR KCDJ 310452Z AUTO 34005KT 11/03 A3017 RMK AO1 SLP218 T01110033





000
SAUS43 KEAX 310353
MTRCDJ
METAR KCDJ 310352Z AUTO 34008G15KT 12/03 A3015 RMK AO1 SLP211
T01170033





000
SAUS43 KEAX 310353
MTRCDJ
METAR KCDJ 310352Z AUTO 34008G15KT 12/03 A3015 RMK AO1 SLP211
T01170033





000
SAUS43 KEAX 310253
MTRCDJ
METAR KCDJ 310252Z AUTO 34007KT 13/03 A3012 RMK AO1 SLP202 T01280033
51021





000
SAUS43 KEAX 310154
MTRCDJ
METAR KCDJ 310152Z AUTO 34005KT 13/04 A3010 RMK AO1 SLP195 T01330039





000
SAUS43 KEAX 310154
MTRCDJ
METAR KCDJ 310152Z AUTO 34005KT 13/04 A3010 RMK AO1 SLP195 T01330039





000
SAUS43 KEAX 310053
MTRCDJ
METAR KCDJ 310052Z AUTO 00000KT 14/04 A3009 RMK AO1 SLP191 T01390044





000
SAUS43 KEAX 302353
MTRCDJ
METAR KCDJ 302352Z AUTO 33003KT 15/05 A3006 RMK AO1 SLP180 T01500050
10189 20144 53020





000
SAUS43 KEAX 302253
MTRCDJ
METAR KCDJ 302252Z AUTO 35006KT 17/05 A3004 RMK AO1 SLP171 T01670050





000
SAUS43 KEAX 302153
MTRCDJ
METAR KCDJ 302152Z AUTO VRB05KT 18/05 A3002 RMK AO1 SLP165 T01830050





000
SAUS43 KEAX 302153
MTRCDJ
METAR KCDJ 302152Z AUTO VRB05KT 18/05 A3002 RMK AO1 SLP165 T01830050





000
SAUS43 KEAX 302053
MTRCDJ
METAR KCDJ 302052Z AUTO 34007KT 19/06 A3000 RMK AO1 SLP158 T01890061
55001





000
SAUS43 KEAX 301953
MTRCDJ
METAR KCDJ 301952Z AUTO 31006KT 18/06 A2999 RMK AO1 SLP154 T01830056





000
SAUS43 KEAX 301853
MTRCDJ
METAR KCDJ 301852Z AUTO VRB04KT 18/06 A2999 RMK AO1 SLP156 T01780056





000
SAUS43 KEAX 301753
MTRCDJ
METAR KCDJ 301752Z AUTO 32004KT 16/06 A3000 RMK AO1 SLP162 T01610056
10161 20083 58013





000
SAUS43 KEAX 301653
MTRCDJ
METAR KCDJ 301652Z AUTO 19003KT 14/06 A3002 RMK AO1 SLP170 T01390056





000
SAUS43 KEAX 301653
MTRCDJ
METAR KCDJ 301652Z AUTO 19003KT 14/06 A3002 RMK AO1 SLP170 T01390056





000
SAUS43 KEAX 301553
MTRCDJ
METAR KCDJ 301552Z AUTO 17003KT 12/05 A3003 RMK AO1 SLP174 T01170050





000
SAUS43 KEAX 301453
MTRCDJ
METAR KCDJ 301452Z AUTO 18006KT 10/04 A3004 RMK AO1 SLP178 T01000039
51000





000
SAUS43 KEAX 301400 COR
MTRCDJ
METAR KCDJ 301352Z AUTO 14007KT 09/03 A3004 RMK AO1 SLP178 T00890033





000
SAUS43 KEAX 301300 COR
MTRCDJ
METAR KCDJ 301252Z AUTO 00000KT 09/02 A3005 RMK AO1 SLP180 T00890022





000
SAUS43 KEAX 301200 COR
MTRCDJ
METAR KCDJ 301152Z AUTO 14010KT 09/02 A3004 RMK AO1 PRESFR SLP177
T00890022 10089 20050 58015





000
SAUS43 KEAX 301100 COR
MTRCDJ
METAR KCDJ 301052Z AUTO 12005KT 08/02 A3007 RMK AO1 SLP184 T00780022





000
SAUS43 KEAX 301100 COR
MTRCDJ
METAR KCDJ 301052Z AUTO 12005KT 08/02 A3007 RMK AO1 SLP184 T00780022





000
SAUS43 KEAX 301000 COR
MTRCDJ
METAR KCDJ 300952Z AUTO 14003KT 07/02 A3007 RMK AO1 SLP184 T00720017





000
SAUS43 KEAX 300856
MTRCDJ
METAR KCDJ 300852Z AUTO 13003KT 07/02 A3009 RMK AO1 SLP189 T00720017
57013





000
SAUS43 KEAX 300800 COR
MTRCDJ
METAR KCDJ 300752Z AUTO 12004KT 07/02 A3010 RMK AO1 SLP195 T00670017





000
SAUS43 KEAX 300700 COR
MTRCDJ
METAR KCDJ 300652Z AUTO 13003KT 07/02 A3011 RMK AO1 SLP199 T00670017





000
SAUS43 KEAX 300600 COR
MTRCDJ
METAR KCDJ 300552Z AUTO 00000KT 05/02 A3012 RMK AO1 SLP205 T00500022
10083 20039 401500011 56009





000
SAUS43 KEAX 300500 COR
MTRCDJ
METAR KCDJ 300452Z AUTO 00000KT 06/02 A3013 RMK AO1 SLP208 T00560022





000
SAUS43 KEAX 300500 COR
MTRCDJ
METAR KCDJ 300452Z AUTO 00000KT 06/02 A3013 RMK AO1 SLP208 T00560022





000
SAUS43 KEAX 300400 COR
MTRCDJ
METAR KCDJ 300352Z AUTO 00000KT 04/02 A3014 RMK AO1 SLP212 T00390017





000
SAUS43 KEAX 300256
MTRCDJ
METAR KCDJ 300252Z AUTO 00000KT 05/02 A3015 RMK AO1 SLP216 T00500022
55002





000
SAUS43 KEAX 300200 COR
MTRCDJ
METAR KCDJ 300152Z AUTO 00000KT 06/02 A3015 RMK AO1 SLP216 T00560022





000
SAUS43 KEAX 300056
MTRCDJ
METAR KCDJ 300052Z AUTO 00000KT 07/03 A3016 RMK AO1 SLP221 T00670028





000
SAUS43 KEAX 300000 COR
MTRCDJ
METAR KCDJ 292352Z AUTO 00000KT 09/03 A3016 RMK AO1 SLP220 T00890028
10150 20089 55006





000
SAUS43 KEAX 292300 COR
MTRCDJ
METAR KCDJ 292252Z AUTO 00000KT 13/00 A3015 RMK AO1 SLP217 T01330000





000
SAUS43 KEAX 292200 COR
MTRCDJ
METAR KCDJ 292152Z AUTO 00000KT 14/00 A3016 RMK AO1 SLP218 T01440000





000
SAUS43 KEAX 292100 COR
MTRCDJ
METAR KCDJ 292052Z AUTO VRB03KT 14/01 A3018 RMK AO1 SLP223 T01440006
56021





000
SAUS43 KEAX 292000 COR
MTRCDJ
METAR KCDJ 291952Z AUTO 30006KT 14/01 A3019 RMK AO1 SLP229 T01390011





000
SAUS43 KEAX 291900 COR
MTRCDJ
METAR KCDJ 291852Z AUTO 31007KT 13/01 A3022 RMK AO1 SLP236 T01330011





000
SAUS43 KEAX 291756
MTRCDJ
METAR KCDJ 291752Z AUTO VRB06KT 12/01 A3024 RMK AO1 SLP244 T01220011
10128 20011 58004





000
SAUS43 KEAX 291656
MTRCDJ
METAR KCDJ 291652Z AUTO VRB06KT 12/02 A3026 RMK AO1 SLP251 T01170017





000
SAUS43 KEAX 291556
MTRCDJ
METAR KCDJ 291552Z AUTO 31007KT 11/01 A3026 RMK AO1 SLP249 T01060011





000
SAUS43 KEAX 291500 COR
MTRCDJ
METAR KCDJ 291452Z AUTO 30007KT 09/02 A3025 RMK AO1 SLP247 T00940017
53012





000
SAUS43 KEAX 291356
MTRCDJ
METAR KCDJ 291352Z AUTO VRB05KT 07/01 A3024 RMK AO1 SLP246 T00670011





000
SAUS43 KEAX 291256
MTRCDJ
METAR KCDJ 291252Z AUTO 00000KT 02/00 A3022 RMK AO1 SLP241 T00170000





000
SAUS43 KEAX 291200 COR
MTRCDJ
METAR KCDJ 291152Z AUTO 00000KT 02/00 A3022 RMK AO1 SLP237 T00220000
10056 20011 53006





000
SAUS43 KEAX 291100 COR
MTRCDJ
METAR KCDJ 291052Z AUTO 00000KT 01/00 A3021 RMK AO1 SLP234 T00110000





000
SAUS43 KEAX 290956
MTRCDJ
METAR KCDJ 290952Z AUTO 00000KT 02/00 A3020 RMK AO1 SLP230 T00220000





000
SAUS43 KEAX 290901 COR
MTRCDJ
METAR KCDJ 290852Z AUTO 00000KT 03/01 A3020 RMK AO1 SLP228 T00280011
51012





000
SAUS43 KEAX 290800 COR
MTRCDJ
METAR KCDJ 290752Z AUTO 00000KT 04/01 A3019 RMK AO1 SLP224 T00390011





    US Dept of Commerce
    National Oceanic and Atmospheric Administration
    National Weather Service
    1325 East West Highway
    Silver Spring, MD 20910
    Page Author: NWS Internet Services Team
Disclaimer
Information Quality
Credits
Glossary
Privacy Policy
Freedom of Information Act (FOIA)
About Us
Career Opportunities